createdAt,value
2018-05-21T00:00:38.620Z,1006.68
2018-05-21T00:01:38.645Z,1006.60
2018-05-21T00:02:38.657Z,1006.67
2018-05-21T00:03:38.690Z,1006.68
2018-05-21T00:04:38.700Z,1006.65
2018-05-21T00:05:38.708Z,1006.63
2018-05-21T00:06:38.755Z,1006.65
2018-05-21T00:07:38.750Z,1006.69
2018-05-21T00:08:38.767Z,1006.68
2018-05-21T00:09:38.787Z,1006.63
2018-05-21T00:10:38.806Z,1006.66
2018-05-21T00:11:38.822Z,1006.61
2018-05-21T00:12:38.845Z,1006.65
2018-05-21T00:13:38.859Z,1006.61
2018-05-21T00:14:38.881Z,1006.63
2018-05-21T00:15:38.903Z,1006.66
2018-05-21T00:16:38.923Z,1006.67
2018-05-21T00:17:38.936Z,1006.60
2018-05-21T00:18:38.963Z,1006.61
2018-05-21T00:19:38.970Z,1006.65
2018-05-21T00:20:38.989Z,1006.65
2018-05-21T00:21:39.008Z,1006.62
2018-05-21T00:22:39.029Z,1006.61
2018-05-21T00:23:39.045Z,1006.63
2018-05-21T00:24:39.067Z,1006.59
2018-05-21T00:25:39.088Z,1006.61
2018-05-21T00:26:39.105Z,1006.59
2018-05-21T00:27:39.118Z,1006.58
2018-05-21T00:28:39.143Z,1006.58
2018-05-21T00:29:39.164Z,1006.59
2018-05-21T00:30:39.189Z,1006.59
2018-05-21T00:31:39.204Z,1006.61
2018-05-21T00:32:39.223Z,1006.57
2018-05-21T00:33:39.233Z,1006.56
2018-05-21T00:34:39.269Z,1006.54
2018-05-21T00:35:39.277Z,1006.56
2018-05-21T00:36:39.287Z,1006.54
2018-05-21T00:37:39.310Z,1006.50
2018-05-21T00:38:39.320Z,1006.52
2018-05-21T00:39:39.343Z,1006.53
2018-05-21T00:40:39.359Z,1006.57
2018-05-21T00:41:39.385Z,1006.53
2018-05-21T00:42:39.398Z,1006.49
2018-05-21T00:43:39.415Z,1006.51
2018-05-21T00:44:39.444Z,1006.50
2018-05-21T00:45:39.450Z,1006.50
2018-05-21T00:46:39.474Z,1006.51
2018-05-21T00:47:39.496Z,1006.53
2018-05-21T00:48:39.509Z,1006.49
2018-05-21T00:49:39.523Z,1006.51
2018-05-21T00:50:39.561Z,1006.52
2018-05-21T00:51:39.567Z,1006.52
2018-05-21T00:52:39.592Z,1006.49
2018-05-21T00:53:39.601Z,1006.54
2018-05-21T00:54:39.618Z,1006.51
2018-05-21T00:55:39.639Z,1006.54
2018-05-21T00:56:39.661Z,1006.51
2018-05-21T00:57:39.672Z,1006.51
2018-05-21T00:58:39.702Z,1006.51
2018-05-21T00:59:39.711Z,1006.50
2018-05-21T01:00:39.734Z,1006.49
2018-05-21T01:01:39.750Z,1006.50
2018-05-21T01:02:39.766Z,1006.48
2018-05-21T01:03:39.788Z,1006.51
2018-05-21T01:04:39.814Z,1006.53
2018-05-21T01:05:39.826Z,1006.51
2018-05-21T01:06:39.839Z,1006.51
2018-05-21T01:07:39.869Z,1006.51
2018-05-21T01:08:39.876Z,1006.50
2018-05-21T01:09:39.897Z,1006.47
2018-05-21T01:10:39.927Z,1006.46
2018-05-21T01:11:39.936Z,1006.46
2018-05-21T01:12:39.957Z,1006.44
2018-05-21T01:13:39.972Z,1006.48
2018-05-21T01:14:39.987Z,1006.47
2018-05-21T01:15:40.062Z,1006.45
2018-05-21T01:16:40.034Z,1006.44
2018-05-21T01:17:40.046Z,1006.45
2018-05-21T01:18:40.064Z,1006.50
2018-05-21T01:19:40.091Z,1006.42
2018-05-21T01:20:40.101Z,1006.46
2018-05-21T01:21:40.129Z,1006.48
2018-05-21T01:22:40.138Z,1006.43
2018-05-21T01:23:40.158Z,1006.44
2018-05-21T01:24:40.171Z,1006.45
2018-05-21T01:25:40.194Z,1006.43
2018-05-21T01:26:40.215Z,1006.41
2018-05-21T01:27:40.229Z,1006.42
2018-05-21T01:28:40.254Z,1006.49
2018-05-21T01:29:40.263Z,1006.49
2018-05-21T01:30:40.287Z,1006.46
2018-05-21T01:31:40.300Z,1006.54
2018-05-21T01:32:40.321Z,1006.46
2018-05-21T01:33:40.357Z,1006.49
2018-05-21T01:34:40.355Z,1006.49
2018-05-21T01:35:40.373Z,1006.55
2018-05-21T01:36:40.391Z,1006.52
2018-05-21T01:37:40.409Z,1006.54
2018-05-21T01:38:40.442Z,1006.52
2018-05-21T01:39:40.448Z,1006.55
2018-05-21T01:40:40.470Z,1006.53
2018-05-21T01:41:40.480Z,1006.57
2018-05-21T01:42:40.502Z,1006.59
2018-05-21T01:43:40.524Z,1006.56
2018-05-21T01:44:40.536Z,1006.61
2018-05-21T01:45:40.555Z,1006.56
2018-05-21T01:46:40.615Z,1006.50
2018-05-21T01:47:40.603Z,1006.54
2018-05-21T01:48:40.611Z,1006.55
2018-05-21T01:49:40.637Z,1006.57
2018-05-21T01:50:40.655Z,1006.61
2018-05-21T01:51:40.683Z,1006.61
2018-05-21T01:52:40.680Z,1006.56
2018-05-21T01:53:40.703Z,1006.60
2018-05-21T01:54:40.720Z,1006.58
2018-05-21T01:55:40.747Z,1006.61
2018-05-21T01:56:40.762Z,1006.55
2018-05-21T01:57:40.781Z,1006.56
2018-05-21T01:58:40.806Z,1006.56
2018-05-21T01:59:40.813Z,1006.53
2018-05-21T02:00:40.832Z,1006.55
2018-05-21T02:01:40.851Z,1006.54
2018-05-21T02:02:40.869Z,1006.56
2018-05-21T02:03:40.885Z,1006.56
2018-05-21T02:04:40.908Z,1006.52
2018-05-21T02:05:40.925Z,1006.52
2018-05-21T02:06:40.947Z,1006.47
2018-05-21T02:07:40.961Z,1006.52
2018-05-21T02:08:41.059Z,1006.53
2018-05-21T02:09:41.010Z,1006.48
2018-05-21T02:10:41.014Z,1006.48
2018-05-21T02:11:41.077Z,1006.49
2018-05-21T02:12:41.058Z,1006.47
2018-05-21T02:13:41.071Z,1006.45
2018-05-21T02:14:41.148Z,1006.46
2018-05-21T02:15:41.145Z,1006.39
2018-05-21T02:16:41.231Z,1006.36
2018-05-21T02:17:41.160Z,1006.41
2018-05-21T02:18:41.269Z,1006.39
2018-05-21T02:19:41.254Z,1006.39
2018-05-21T02:20:41.204Z,1006.32
2018-05-21T02:21:41.214Z,1006.36
2018-05-21T02:22:41.237Z,1006.35
2018-05-21T02:23:41.262Z,1006.41
2018-05-21T02:24:41.315Z,1006.41
2018-05-21T02:25:41.327Z,1006.43
2018-05-21T02:26:41.367Z,1006.41
2018-05-21T02:27:41.362Z,1006.41
2018-05-21T02:28:41.474Z,1006.38
2018-05-21T02:29:41.411Z,1006.37
2018-05-21T02:30:41.547Z,1006.35
2018-05-21T02:31:41.488Z,1006.38
2018-05-21T02:32:41.415Z,1006.39
2018-05-21T02:33:41.482Z,1006.41
2018-05-21T02:34:41.456Z,1006.35
2018-05-21T02:35:41.552Z,1006.35
2018-05-21T02:36:41.498Z,1006.37
2018-05-21T02:37:41.506Z,1006.37
2018-05-21T02:38:41.528Z,1006.37
2018-05-21T02:39:41.554Z,1006.42
2018-05-21T02:40:41.592Z,1006.40
2018-05-21T02:41:41.613Z,1006.40
2018-05-21T02:42:41.601Z,1006.38
2018-05-21T02:43:41.627Z,1006.40
2018-05-21T02:44:41.639Z,1006.35
2018-05-21T02:45:41.693Z,1006.33
2018-05-21T02:46:41.676Z,1006.35
2018-05-21T02:47:41.687Z,1006.32
2018-05-21T02:48:41.727Z,1006.32
2018-05-21T02:49:41.730Z,1006.36
2018-05-21T02:50:41.742Z,1006.35
2018-05-21T02:51:41.767Z,1006.31
2018-05-21T02:52:41.777Z,1006.31
2018-05-21T02:53:41.799Z,1006.31
2018-05-21T02:54:41.813Z,1006.31
2018-05-21T02:55:41.838Z,1006.27
2018-05-21T02:56:41.857Z,1006.27
2018-05-21T02:57:41.876Z,1006.27
2018-05-21T02:58:41.892Z,1006.20
2018-05-21T02:59:41.909Z,1006.18
2018-05-21T03:00:41.935Z,1006.22
2018-05-21T03:01:41.951Z,1006.23
2018-05-21T03:02:41.967Z,1006.20
2018-05-21T03:03:41.980Z,1006.20
2018-05-21T03:04:42.019Z,1006.17
2018-05-21T03:05:42.062Z,1006.20
2018-05-21T03:06:42.090Z,1006.17
2018-05-21T03:07:42.055Z,1006.22
2018-05-21T03:08:42.085Z,1006.21
2018-05-21T03:09:42.091Z,1006.19
2018-05-21T03:10:42.109Z,1006.22
2018-05-21T03:11:42.130Z,1006.22
2018-05-21T03:12:42.151Z,1006.21
2018-05-21T03:13:42.162Z,1006.23
2018-05-21T03:14:42.195Z,1006.23
2018-05-21T03:15:42.198Z,1006.20
2018-05-21T03:16:42.214Z,1006.21
2018-05-21T03:17:42.243Z,1006.21
2018-05-21T03:18:42.259Z,1006.19
2018-05-21T03:19:42.269Z,1006.26
2018-05-21T03:20:42.287Z,1006.27
2018-05-21T03:21:42.320Z,1006.21
2018-05-21T03:22:42.323Z,1006.22
2018-05-21T03:23:42.340Z,1006.20
2018-05-21T03:24:42.359Z,1006.21
2018-05-21T03:25:42.379Z,1006.19
2018-05-21T03:26:42.410Z,1006.22
2018-05-21T03:27:42.413Z,1006.20
2018-05-21T03:28:42.448Z,1006.23
2018-05-21T03:29:42.454Z,1006.20
2018-05-21T03:30:42.479Z,1006.24
2018-05-21T03:31:42.504Z,1006.25
2018-05-21T03:32:42.511Z,1006.18
2018-05-21T03:33:42.539Z,1006.22
2018-05-21T03:34:42.542Z,1006.23
2018-05-21T03:35:42.567Z,1006.22
2018-05-21T03:36:42.616Z,1006.25
2018-05-21T03:37:42.620Z,1006.22
2018-05-21T03:38:42.646Z,1006.18
2018-05-21T03:39:42.648Z,1006.19
2018-05-21T03:40:42.689Z,1006.16
2018-05-21T03:41:42.701Z,1006.18
2018-05-21T03:42:42.686Z,1006.20
2018-05-21T03:43:42.728Z,1006.18
2018-05-21T03:44:42.722Z,1006.22
2018-05-21T03:45:42.744Z,1006.21
2018-05-21T03:46:42.760Z,1006.20
2018-05-21T03:47:42.785Z,1006.20
2018-05-21T03:48:42.797Z,1006.15
2018-05-21T03:49:42.820Z,1006.22
2018-05-21T03:50:42.854Z,1006.19
2018-05-21T03:51:42.883Z,1006.20
2018-05-21T03:52:42.873Z,1006.15
2018-05-21T03:53:42.990Z,1006.17
2018-05-21T03:54:42.908Z,1006.17
2018-05-21T03:55:42.928Z,1006.16
2018-05-21T03:56:42.945Z,1006.18
2018-05-21T03:57:42.977Z,1006.13
2018-05-21T03:58:42.980Z,1006.18
2018-05-21T03:59:43.146Z,1006.16
2018-05-21T04:00:43.029Z,1006.16
2018-05-21T04:01:43.049Z,1006.15
2018-05-21T04:02:43.060Z,1006.17
2018-05-21T04:03:43.081Z,1006.16
2018-05-21T04:04:43.094Z,1006.19
2018-05-21T04:05:43.109Z,1006.18
2018-05-21T04:06:43.126Z,1006.13
2018-05-21T04:07:43.149Z,1006.12
2018-05-21T04:08:43.171Z,1006.17
2018-05-21T04:09:43.185Z,1006.18
2018-05-21T04:10:43.201Z,1006.24
2018-05-21T04:11:43.222Z,1006.22
2018-05-21T04:12:43.240Z,1006.25
2018-05-21T04:13:43.255Z,1006.27
2018-05-21T04:14:43.275Z,1006.25
2018-05-21T04:15:43.288Z,1006.27
2018-05-21T04:16:43.312Z,1006.24
2018-05-21T04:17:43.325Z,1006.28
2018-05-21T04:18:43.350Z,1006.25
2018-05-21T04:19:43.371Z,1006.31
2018-05-21T04:20:43.388Z,1006.27
2018-05-21T04:21:43.400Z,1006.26
2018-05-21T04:22:43.418Z,1006.26
2018-05-21T04:23:43.437Z,1006.27
2018-05-21T04:24:43.467Z,1006.23
2018-05-21T04:25:43.486Z,1006.26
2018-05-21T04:26:43.493Z,1006.30
2018-05-21T04:27:43.513Z,1006.27
2018-05-21T04:28:43.528Z,1006.29
2018-05-21T04:29:43.553Z,1006.32
2018-05-21T04:30:43.575Z,1006.33
2018-05-21T04:31:43.593Z,1006.34
2018-05-21T04:32:43.610Z,1006.35
2018-05-21T04:33:43.646Z,1006.36
2018-05-21T04:34:43.639Z,1006.38
2018-05-21T04:35:43.656Z,1006.40
2018-05-21T04:36:43.681Z,1006.43
2018-05-21T04:37:43.693Z,1006.34
2018-05-21T04:38:43.726Z,1006.42
2018-05-21T04:39:43.738Z,1006.44
2018-05-21T04:40:43.751Z,1006.42
2018-05-21T04:41:43.775Z,1006.43
2018-05-21T04:42:43.785Z,1006.40
2018-05-21T04:43:43.814Z,1006.37
2018-05-21T04:44:43.826Z,1006.38
2018-05-21T04:45:43.846Z,1006.38
2018-05-21T04:46:43.869Z,1006.41
2018-05-21T04:47:43.888Z,1006.42
2018-05-21T04:48:43.908Z,1006.51
2018-05-21T04:49:43.922Z,1006.58
2018-05-21T04:50:43.940Z,1006.87
2018-05-21T04:51:43.966Z,1007.15
2018-05-21T04:52:43.980Z,1007.09
2018-05-21T04:53:43.997Z,1007.13
2018-05-21T04:54:44.018Z,1007.18
2018-05-21T04:55:44.045Z,1007.16
2018-05-21T04:56:44.058Z,1007.16
2018-05-21T04:57:44.078Z,1007.22
2018-05-21T04:58:44.100Z,1007.28
2018-05-21T04:59:44.123Z,1007.26
2018-05-21T05:00:44.149Z,1007.25
2018-05-21T05:01:44.199Z,1007.26
2018-05-21T05:02:44.186Z,1007.24
2018-05-21T05:03:44.212Z,1007.25
2018-05-21T05:04:44.238Z,1007.24
2018-05-21T05:05:44.260Z,1007.27
2018-05-21T05:06:44.281Z,1007.33
2018-05-21T05:07:44.305Z,1007.27
2018-05-21T05:08:44.326Z,1007.32
2018-05-21T05:09:44.354Z,1007.31
2018-05-21T05:10:44.373Z,1007.33
2018-05-21T05:11:44.410Z,1007.33
2018-05-21T05:12:44.425Z,1007.39
2018-05-21T05:13:44.465Z,1007.36
2018-05-21T05:14:44.482Z,1007.41
2018-05-21T05:15:44.500Z,1007.46
2018-05-21T05:16:44.524Z,1007.47
2018-05-21T05:17:44.560Z,1007.54
2018-05-21T05:18:44.633Z,1007.56
2018-05-21T05:19:44.597Z,1007.62
2018-05-21T05:20:44.648Z,1007.63
2018-05-21T05:21:44.655Z,1007.62
2018-05-21T05:22:44.687Z,1007.62
2018-05-21T05:23:44.707Z,1007.65
2018-05-21T05:24:44.739Z,1007.61
2018-05-21T05:25:44.763Z,1007.60
2018-05-21T05:26:44.843Z,1007.64
2018-05-21T05:27:44.813Z,1007.68
2018-05-21T05:28:44.839Z,1007.63
2018-05-21T05:29:44.866Z,1007.67
2018-05-21T05:30:44.890Z,1007.67
2018-05-21T05:31:44.922Z,1007.71
2018-05-21T05:32:44.951Z,1007.74
2018-05-21T05:33:44.970Z,1007.78
2018-05-21T05:34:45.004Z,1007.75
2018-05-21T05:35:45.029Z,1007.72
2018-05-21T05:36:45.067Z,1007.74
2018-05-21T05:37:45.082Z,1007.78
2018-05-21T05:38:45.115Z,1007.72
2018-05-21T05:39:45.138Z,1007.76
2018-05-21T05:40:45.165Z,1007.83
2018-05-21T05:41:45.192Z,1007.85
2018-05-21T05:42:45.219Z,1007.89
2018-05-21T05:43:45.257Z,1007.95
2018-05-21T05:44:45.282Z,1007.96
2018-05-21T05:45:45.305Z,1008.06
2018-05-21T05:46:45.346Z,1008.04
2018-05-21T05:47:45.373Z,1008.05
2018-05-21T05:48:45.442Z,1008.06
2018-05-21T05:49:45.418Z,1008.07
2018-05-21T05:50:45.469Z,1008.13
2018-05-21T05:51:45.477Z,1008.13
2018-05-21T05:52:45.512Z,1008.17
2018-05-21T05:53:45.533Z,1008.21
2018-05-21T05:54:45.579Z,1008.26
2018-05-21T05:55:45.589Z,1008.26
2018-05-21T05:56:45.612Z,1008.26
2018-05-21T05:57:45.641Z,1008.32
2018-05-21T05:58:45.667Z,1008.34
2018-05-21T05:59:45.707Z,1008.45
2018-05-21T06:00:45.729Z,1008.51
2018-05-21T06:01:45.751Z,1008.52
2018-05-21T06:02:45.788Z,1008.56
2018-05-21T06:03:45.810Z,1008.60
2018-05-21T06:04:45.835Z,1008.75
2018-05-21T06:05:45.861Z,1009.04
2018-05-21T06:06:46.078Z,1009.18
2018-05-21T06:07:45.924Z,1009.19
2018-05-21T06:08:45.941Z,1009.74
2018-05-21T06:09:45.992Z,1009.96
2018-05-21T06:10:46.002Z,1009.83
2018-05-21T06:11:46.029Z,1009.98
2018-05-21T06:12:46.051Z,1010.28
2018-05-21T06:13:46.147Z,1010.57
2018-05-21T06:14:46.106Z,1010.48
2018-05-21T06:15:46.134Z,1010.39
2018-05-21T06:16:46.164Z,1010.75
2018-05-21T06:17:46.199Z,1011.10
2018-05-21T06:18:46.232Z,1011.50
2018-05-21T06:19:46.433Z,1011.98
2018-05-21T06:20:46.430Z,1012.28
2018-05-21T06:21:46.308Z,1012.26
2018-05-21T06:22:46.349Z,1012.16
2018-05-21T06:23:46.383Z,1012.38
2018-05-21T06:24:46.388Z,1012.57
2018-05-21T06:25:46.436Z,1012.75
2018-05-21T06:26:46.455Z,1012.96
2018-05-21T06:27:46.511Z,1013.37
2018-05-21T06:28:46.499Z,1013.52
2018-05-21T06:29:46.548Z,1013.71
2018-05-21T06:30:46.564Z,1013.97
2018-05-21T06:31:46.597Z,1014.17
2018-05-21T06:32:46.614Z,1014.45
2018-05-21T06:33:46.640Z,1015.58
2018-05-21T06:34:46.671Z,1015.44
2018-05-21T06:35:46.711Z,1014.47
2018-05-21T06:36:46.753Z,1014.55
2018-05-21T06:37:46.756Z,1014.84
2018-05-21T06:38:46.796Z,1016.28
2018-05-21T06:39:46.820Z,1016.19
2018-05-21T06:40:46.840Z,1015.93
2018-05-21T06:41:46.872Z,1016.27
2018-05-21T06:42:46.896Z,1015.09
2018-05-21T06:43:46.926Z,1014.56
2018-05-21T06:44:46.963Z,1015.63
2018-05-21T06:45:46.978Z,1016.45
2018-05-21T06:46:47.002Z,1016.69
2018-05-21T06:47:47.060Z,1017.30
2018-05-21T06:48:47.077Z,1018.24
2018-05-21T06:49:47.101Z,1018.40
2018-05-21T06:50:47.131Z,1017.80
2018-05-21T06:51:47.147Z,1018.65
2018-05-21T06:52:47.189Z,1019.10
2018-05-21T06:53:47.214Z,1017.72
2018-05-21T06:54:47.237Z,1017.63
2018-05-21T06:55:47.280Z,1018.88
2018-05-21T06:56:47.291Z,1019.13
2018-05-21T06:57:47.332Z,1018.75
2018-05-21T06:58:47.360Z,1018.18
2018-05-21T06:59:47.431Z,1017.57
2018-05-21T07:00:47.399Z,1018.14
2018-05-21T07:01:47.437Z,1019.04
2018-05-21T07:02:47.462Z,1019.77
2018-05-21T07:03:47.492Z,1020.20
2018-05-21T07:04:47.522Z,1020.53
2018-05-21T07:05:47.544Z,1021.26
2018-05-21T07:06:47.571Z,1021.70
2018-05-21T07:07:47.600Z,1021.70
2018-05-21T07:08:47.638Z,1021.70
2018-05-21T07:09:47.665Z,1021.40
2018-05-21T07:10:47.684Z,1019.22
2018-05-21T07:11:47.726Z,1017.00
2018-05-21T07:12:47.745Z,1017.29
2018-05-21T07:13:47.783Z,1020.00
2018-05-21T07:14:47.807Z,1022.29
2018-05-21T07:15:47.833Z,1022.87
2018-05-21T07:16:47.860Z,1021.89
2018-05-21T07:17:47.882Z,1020.92
2018-05-21T07:18:47.919Z,1021.43
2018-05-21T07:19:47.937Z,1022.11
2018-05-21T07:20:47.980Z,1022.67
2018-05-21T07:21:47.993Z,1022.92
2018-05-21T07:22:48.073Z,1022.87
2018-05-21T07:23:48.054Z,1022.77
2018-05-21T07:24:48.082Z,1023.03
2018-05-21T07:25:48.113Z,1023.72
2018-05-21T07:26:48.151Z,1024.33
2018-05-21T07:27:48.204Z,1024.59
2018-05-21T07:28:48.225Z,1024.28
2018-05-21T07:29:48.252Z,1024.72
2018-05-21T07:30:48.276Z,1026.22
2018-05-21T07:31:48.301Z,1025.46
2018-05-21T07:32:48.343Z,1024.73
2018-05-21T07:33:48.356Z,1024.91
2018-05-21T07:34:48.380Z,1023.90
2018-05-21T07:35:48.491Z,1023.03
2018-05-21T07:36:48.416Z,1023.09
2018-05-21T07:37:48.451Z,1023.87
2018-05-21T07:38:48.490Z,1025.48
2018-05-21T07:39:48.510Z,1025.50
2018-05-21T07:40:48.543Z,1024.14
2018-05-21T07:41:48.563Z,1023.23
2018-05-21T07:42:48.616Z,1023.79
2018-05-21T07:43:48.631Z,1024.86
2018-05-21T07:44:48.725Z,1024.61
2018-05-21T07:45:48.684Z,1025.33
2018-05-21T07:46:48.717Z,1026.56
2018-05-21T07:47:48.744Z,1027.06
2018-05-21T07:48:48.766Z,1026.25
2018-05-21T07:49:48.806Z,1026.49
2018-05-21T07:50:48.851Z,1027.63
2018-05-21T07:51:48.852Z,1027.44
2018-05-21T07:52:48.876Z,1027.28
2018-05-21T07:53:48.912Z,1028.00
2018-05-21T07:54:48.955Z,1028.49
2018-05-21T07:55:48.961Z,1027.23
2018-05-21T07:56:48.998Z,1027.39
2018-05-21T07:57:49.028Z,1028.60
2018-05-21T07:58:49.058Z,1028.40
2018-05-21T07:59:49.091Z,1028.73
2018-05-21T08:00:49.119Z,1029.96
2018-05-21T08:01:49.131Z,1028.38
2018-05-21T08:02:49.164Z,1027.37
2018-05-21T08:03:49.187Z,1025.65
2018-05-21T08:04:49.216Z,1027.63
2018-05-21T08:05:49.248Z,1023.56
2018-05-21T08:06:49.272Z,1020.86
2018-05-21T08:07:49.303Z,1024.24
2018-05-21T08:08:49.331Z,1026.81
2018-05-21T08:09:49.360Z,1024.94
2018-05-21T08:10:49.381Z,1021.76
2018-05-21T08:11:49.417Z,1025.02
2018-05-21T08:12:49.436Z,1027.29
2018-05-21T08:13:49.467Z,1028.57
2018-05-21T08:14:49.616Z,1030.11
2018-05-21T08:15:49.526Z,1028.56
2018-05-21T08:16:49.546Z,1027.35
2018-05-21T08:17:49.583Z,1027.12
2018-05-21T08:18:49.600Z,1029.64
2018-05-21T08:19:49.634Z,1027.37
2018-05-21T08:20:49.654Z,1023.21
2018-05-21T08:21:49.680Z,1023.92
2018-05-21T08:22:49.705Z,1027.24
2018-05-21T08:23:49.789Z,1028.85
2018-05-21T08:24:49.764Z,1028.69
2018-05-21T08:25:49.800Z,1029.50
2018-05-21T08:26:49.844Z,1029.07
2018-05-21T08:27:49.838Z,1024.99
2018-05-21T08:28:49.869Z,1013.93
2018-05-21T08:29:49.895Z,1005.67
2018-05-21T08:30:49.923Z,1005.49
2018-05-21T08:31:49.950Z,1005.45
2018-05-21T08:32:49.977Z,1005.43
2018-05-21T08:33:49.992Z,1005.42
2018-05-21T08:34:50.018Z,1005.46
2018-05-21T08:35:50.056Z,1005.46
2018-05-21T08:36:50.069Z,1005.37
2018-05-21T08:37:50.092Z,1005.33
2018-05-21T08:38:50.117Z,1005.31
2018-05-21T08:39:50.142Z,1005.32
2018-05-21T08:40:50.169Z,1005.32
2018-05-21T08:41:50.200Z,1005.31
2018-05-21T08:42:50.213Z,1005.28
2018-05-21T08:43:50.241Z,1005.31
2018-05-21T08:44:50.273Z,1005.26
2018-05-21T08:45:50.288Z,1005.21
2018-05-21T08:46:50.315Z,1005.21
2018-05-21T08:47:50.349Z,1005.23
2018-05-21T08:48:50.398Z,1005.20
2018-05-21T08:49:50.388Z,1005.24
2018-05-21T08:50:50.416Z,1005.29
2018-05-21T08:51:50.426Z,1005.19
2018-05-21T08:52:50.452Z,1005.22
2018-05-21T08:53:50.483Z,1005.21
2018-05-21T08:54:50.515Z,1005.19
2018-05-21T08:55:50.519Z,1005.17
2018-05-21T08:56:50.546Z,1005.18
2018-05-21T08:57:50.568Z,1005.10
2018-05-21T08:58:50.695Z,1005.15
2018-05-21T08:59:50.636Z,1005.17
2018-05-21T09:00:50.646Z,1005.12
2018-05-21T09:01:50.675Z,1005.07
2018-05-21T09:02:50.794Z,1005.06
2018-05-21T09:03:50.712Z,1005.12
2018-05-21T09:04:50.740Z,1005.08
2018-05-21T09:05:50.772Z,1005.03
2018-05-21T09:06:50.777Z,1005.09
2018-05-21T09:07:50.806Z,1004.99
2018-05-21T09:08:50.829Z,1004.98
2018-05-21T09:09:50.852Z,1004.93
2018-05-21T09:10:50.875Z,1004.92
2018-05-21T09:11:50.901Z,1004.91
2018-05-21T09:12:50.925Z,1004.91
2018-05-21T09:13:50.950Z,1004.90
2018-05-21T09:14:50.969Z,1004.86
2018-05-21T09:15:50.992Z,1004.90
2018-05-21T09:16:51.013Z,1004.91
2018-05-21T09:17:51.048Z,1004.90
2018-05-21T09:18:51.064Z,1004.95
2018-05-21T09:19:51.100Z,1004.93
2018-05-21T09:20:51.115Z,1004.91
2018-05-21T09:21:51.131Z,1004.87
2018-05-21T09:22:51.162Z,1004.81
2018-05-21T09:23:51.181Z,1004.80
2018-05-21T09:24:51.205Z,1004.74
2018-05-21T09:25:51.293Z,1004.81
2018-05-21T09:26:51.251Z,1004.71
2018-05-21T09:27:51.287Z,1004.84
2018-05-21T09:28:51.294Z,1004.77
2018-05-21T09:29:51.320Z,1004.73
2018-05-21T09:30:51.344Z,1004.75
2018-05-21T09:31:51.364Z,1004.71
2018-05-21T09:32:51.405Z,1004.75
2018-05-21T09:33:51.420Z,1004.67
2018-05-21T09:34:51.434Z,1004.64
2018-05-21T09:35:51.461Z,1004.63
2018-05-21T09:36:51.483Z,1004.64
2018-05-21T09:37:51.519Z,1004.66
2018-05-21T09:38:51.531Z,1004.64
2018-05-21T09:39:51.557Z,1004.63
2018-05-21T09:40:51.588Z,1004.66
2018-05-21T09:41:51.599Z,1004.62
2018-05-21T09:42:51.627Z,1004.62
2018-05-21T09:43:51.647Z,1004.57
2018-05-21T09:44:51.680Z,1004.54
2018-05-21T09:45:51.699Z,1004.48
2018-05-21T09:46:51.725Z,1004.51
2018-05-21T09:47:51.739Z,1004.50
2018-05-21T09:48:51.765Z,1004.49
2018-05-21T09:49:51.799Z,1004.46
2018-05-21T09:50:51.811Z,1004.46
2018-05-21T09:51:51.857Z,1004.44
2018-05-21T09:52:51.866Z,1004.42
2018-05-21T09:53:51.888Z,1004.39
2018-05-21T09:54:51.905Z,1004.49
2018-05-21T09:55:51.930Z,1004.45
2018-05-21T09:56:51.961Z,1004.47
2018-05-21T09:57:51.976Z,1004.42
2018-05-21T09:58:52.004Z,1004.41
2018-05-21T09:59:52.030Z,1004.42
2018-05-21T10:00:52.060Z,1004.43
2018-05-21T10:01:52.073Z,1004.36
2018-05-21T10:02:52.090Z,1004.36
2018-05-21T10:03:52.147Z,1004.37
2018-05-21T10:04:52.137Z,1004.32
2018-05-21T10:05:52.170Z,1004.33
2018-05-21T10:06:52.186Z,1004.39
2018-05-21T10:07:52.220Z,1004.29
2018-05-21T10:08:52.235Z,1004.30
2018-05-21T10:09:52.260Z,1004.35
2018-05-21T10:10:52.287Z,1004.25
2018-05-21T10:11:52.316Z,1004.23
2018-05-21T10:12:52.331Z,1004.17
2018-05-21T10:13:52.348Z,1004.09
2018-05-21T10:14:52.380Z,1004.09
2018-05-21T10:15:52.407Z,1004.07
2018-05-21T10:16:52.426Z,1004.09
2018-05-21T10:17:52.451Z,1004.12
2018-05-21T10:18:52.469Z,1004.16
2018-05-21T10:19:52.492Z,1004.05
2018-05-21T10:20:52.538Z,1004.06
2018-05-21T10:21:52.556Z,1004.02
2018-05-21T10:22:52.568Z,1004.01
2018-05-21T10:23:52.585Z,1003.97
2018-05-21T10:24:52.622Z,1004.00
2018-05-21T10:25:52.634Z,1004.01
2018-05-21T10:26:52.655Z,1004.05
2018-05-21T10:27:52.683Z,1004.03
2018-05-21T10:28:52.709Z,1004.00
2018-05-21T10:29:52.730Z,1004.00
2018-05-21T10:30:52.746Z,1003.98
2018-05-21T10:31:52.772Z,1004.07
2018-05-21T10:32:52.806Z,1004.00
2018-05-21T10:33:52.819Z,1003.90
2018-05-21T10:34:52.849Z,1003.90
2018-05-21T10:35:52.875Z,1003.94
2018-05-21T10:36:52.899Z,1003.90
2018-05-21T10:37:52.914Z,1003.88
2018-05-21T10:38:52.936Z,1003.83
2018-05-21T10:39:52.960Z,1003.88
2018-05-21T10:40:52.987Z,1003.87
2018-05-21T10:41:53.010Z,1003.81
2018-05-21T10:42:53.030Z,1003.72
2018-05-21T10:43:53.089Z,1003.79
2018-05-21T10:44:53.078Z,1003.80
2018-05-21T10:45:53.109Z,1003.76
2018-05-21T10:46:53.128Z,1003.77
2018-05-21T10:47:53.167Z,1003.70
2018-05-21T10:48:53.186Z,1003.72
2018-05-21T10:49:53.195Z,1003.68
2018-05-21T10:50:53.224Z,1003.70
2018-05-21T10:51:53.251Z,1003.67
2018-05-21T10:52:53.265Z,1003.63
2018-05-21T10:53:53.288Z,1003.58
2018-05-21T10:54:53.323Z,1003.64
2018-05-21T10:55:53.339Z,1003.62
2018-05-21T10:56:53.369Z,1003.57
2018-05-21T10:57:53.395Z,1003.59
2018-05-21T10:58:53.409Z,1003.56
2018-05-21T10:59:53.433Z,1003.53
2018-05-21T11:00:53.465Z,1003.55
2018-05-21T11:01:53.478Z,1003.53
2018-05-21T11:02:53.505Z,1003.54
2018-05-21T11:03:53.531Z,1003.44
2018-05-21T11:04:53.553Z,1003.53
2018-05-21T11:05:53.587Z,1003.45
2018-05-21T11:06:53.597Z,1003.46
2018-05-21T11:07:53.643Z,1003.43
2018-05-21T11:08:53.651Z,1003.41
2018-05-21T11:09:53.673Z,1003.42
2018-05-21T11:10:53.712Z,1003.38
2018-05-21T11:11:53.715Z,1003.33
2018-05-21T11:12:53.754Z,1003.32
2018-05-21T11:13:53.767Z,1003.28
2018-05-21T11:14:53.798Z,1003.24
2018-05-21T11:15:53.812Z,1003.29
2018-05-21T11:16:53.835Z,1003.33
2018-05-21T11:17:53.942Z,1003.31
2018-05-21T11:18:53.882Z,1003.28
2018-05-21T11:19:53.914Z,1003.31
2018-05-21T11:20:53.937Z,1003.28
2018-05-21T11:21:53.964Z,1003.27
2018-05-21T11:22:53.983Z,1003.21
2018-05-21T11:23:53.999Z,1003.21
2018-05-21T11:24:54.033Z,1003.24
2018-05-21T11:25:54.052Z,1003.24
2018-05-21T11:26:54.072Z,1003.17
2018-05-21T11:27:54.100Z,1003.18
2018-05-21T11:28:54.129Z,1003.15
2018-05-21T11:29:54.145Z,1003.19
2018-05-21T11:30:54.173Z,1003.16
2018-05-21T11:31:54.201Z,1003.15
2018-05-21T11:32:54.214Z,1003.16
2018-05-21T11:33:54.238Z,1003.16
2018-05-21T11:34:54.269Z,1003.23
2018-05-21T11:35:54.287Z,1003.19
2018-05-21T11:36:54.311Z,1003.17
2018-05-21T11:37:54.342Z,1003.13
2018-05-21T11:38:54.371Z,1003.11
2018-05-21T11:39:54.392Z,1003.15
2018-05-21T11:40:54.426Z,1003.13
2018-05-21T11:41:54.437Z,1003.03
2018-05-21T11:42:54.454Z,1003.01
2018-05-21T11:43:54.490Z,1002.99
2018-05-21T11:44:54.527Z,1002.97
2018-05-21T11:45:54.527Z,1002.98
2018-05-21T11:46:54.577Z,1003.02
2018-05-21T11:47:54.606Z,1002.93
2018-05-21T11:48:54.607Z,1002.90
2018-05-21T11:49:54.618Z,1002.92
2018-05-21T11:50:54.645Z,1002.86
2018-05-21T11:51:54.671Z,1002.91
2018-05-21T11:52:54.698Z,1002.94
2018-05-21T11:53:54.738Z,1002.88
2018-05-21T11:54:54.749Z,1003.00
2018-05-21T11:55:54.769Z,1002.93
2018-05-21T11:56:54.793Z,1002.84
2018-05-21T11:57:54.809Z,1002.84
2018-05-21T11:58:54.842Z,1002.76
2018-05-21T11:59:54.862Z,1002.81
2018-05-21T12:00:54.886Z,1002.78
2018-05-21T12:01:54.968Z,1002.77
2018-05-21T12:02:54.931Z,1002.69
2018-05-21T12:03:54.957Z,1002.75
2018-05-21T12:04:54.976Z,1002.66
2018-05-21T12:05:55.003Z,1002.68